createdAt,value
2022-09-14T00:01:30.293Z,93433.31
2022-09-14T00:03:59.545Z,93432.00
2022-09-14T00:06:27.209Z,93432.78
2022-09-14T00:08:55.415Z,93428.16
2022-09-14T00:11:23.850Z,93418.13
2022-09-14T00:13:53.635Z,93416.47
2022-09-14T00:16:22.501Z,93408.63
2022-09-14T00:18:51.844Z,93402.38
2022-09-14T00:21:19.380Z,93398.88
2022-09-14T00:23:46.890Z,93391.50
2022-09-14T00:26:15.673Z,93396.16
2022-09-14T00:28:44.290Z,93406.19
2022-09-14T00:31:13.189Z,93401.88
2022-09-14T00:33:42.240Z,93398.34
2022-09-14T00:36:10.956Z,93396.75
2022-09-14T00:38:38.542Z,93392.91
2022-09-14T00:41:07.677Z,93392.09
2022-09-14T00:43:51.476Z,93378.50
2022-09-14T00:46:20.464Z,93361.69
2022-09-14T00:48:48.004Z,93356.25
2022-09-14T00:51:15.804Z,93350.81
2022-09-14T00:53:43.919Z,93362.50
2022-09-14T00:56:11.466Z,93357.06
2022-09-14T00:58:39.279Z,93350.00
2022-09-14T01:01:07.929Z,93343.78
2022-09-14T01:03:36.984Z,93341.34
2022-09-14T01:06:07.265Z,93335.63
2022-09-14T01:08:45.188Z,93333.19
2022-09-14T01:11:27.749Z,93343.28
2022-09-14T01:13:59.385Z,93346.78
2022-09-14T01:16:31.606Z,93337.00
2022-09-14T01:19:02.891Z,93328.84
2022-09-14T01:21:32.212Z,93332.69
2022-09-14T01:24:03.066Z,93331.56
2022-09-14T01:26:44.458Z,93331.91
2022-09-14T01:29:14.990Z,93323.75
2022-09-14T01:31:47.157Z,93325.34
2022-09-14T01:34:16.801Z,93320.19
2022-09-14T01:36:46.553Z,93320.19
2022-09-14T01:39:14.108Z,93327.56
2022-09-14T01:41:42.109Z,93327.56
2022-09-14T01:44:10.616Z,93329.47
2022-09-14T01:46:41.071Z,93331.34
2022-09-14T01:49:11.173Z,93327.03
2022-09-14T01:51:40.145Z,93331.34
2022-09-14T01:54:09.852Z,93327.03
2022-09-14T01:56:39.559Z,93325.41
2022-09-14T01:59:09.119Z,93329.75
2022-09-14T02:01:41.086Z,93322.69
2022-09-14T02:04:10.612Z,93322.69
2022-09-14T02:06:39.129Z,93320.81
2022-09-14T02:09:07.724Z,93317.59
2022-09-14T02:11:35.257Z,93312.94
2022-09-14T02:14:02.850Z,93301.28
2022-09-14T02:16:30.447Z,93298.56
2022-09-14T02:19:01.572Z,93293.13
2022-09-14T02:21:30.789Z,93306.72
2022-09-14T02:23:58.448Z,93300.47
2022-09-14T02:26:25.969Z,93299.66
2022-09-14T02:28:55.927Z,93288.81
2022-09-14T02:31:27.953Z,93294.22
2022-09-14T02:34:01.269Z,93289.91
2022-09-14T02:36:32.619Z,93286.09
2022-09-14T02:39:03.272Z,93282.81
2022-09-14T02:41:37.204Z,93276.31
2022-09-14T02:44:07.573Z,93273.88
2022-09-14T02:46:38.312Z,93278.22
2022-09-14T02:49:10.749Z,93268.44
2022-09-14T02:51:41.942Z,93271.16
2022-09-14T02:54:12.360Z,93271.16
2022-09-14T02:56:39.892Z,93267.63
2022-09-14T02:59:07.437Z,93270.06
2022-09-14T03:01:35.317Z,93272.28
2022-09-14T03:04:03.397Z,93261.41
2022-09-14T03:06:32.616Z,93263.31
2022-09-14T03:09:00.253Z,93250.53
2022-09-14T03:11:27.782Z,93262.19
2022-09-14T03:13:55.329Z,93259.81
2022-09-14T03:16:22.897Z,93266.03
2022-09-14T03:18:50.433Z,93268.75
2022-09-14T03:21:18.358Z,93261.41
2022-09-14T03:23:48.021Z,93271.47
2022-09-14T03:26:16.189Z,93265.22
2022-09-14T03:28:43.924Z,93265.22
2022-09-14T03:31:12.282Z,93266.34
2022-09-14T03:33:40.736Z,93265.22
2022-09-14T03:36:11.745Z,93273.66
2022-09-14T03:38:39.304Z,93273.66
2022-09-14T03:41:11.233Z,93283.44
2022-09-14T03:43:38.810Z,93286.16
2022-09-14T03:46:07.760Z,93285.34
2022-09-14T03:48:35.304Z,93270.16
2022-09-14T03:51:02.884Z,93269.06
2022-09-14T03:53:30.553Z,93281.53
2022-09-14T03:55:58.188Z,93274.50
2022-09-14T03:58:27.270Z,93273.66
2022-09-14T04:00:54.792Z,93276.09
2022-09-14T04:03:22.378Z,93279.94
2022-09-14T04:05:55.516Z,93279.09
2022-09-14T04:08:23.091Z,93264.72
2022-09-14T04:10:50.674Z,93260.91
2022-09-14T04:13:18.181Z,93258.19
2022-09-14T04:15:56.540Z,93248.44
2022-09-14T04:18:24.195Z,93251.94
2022-09-14T04:20:56.289Z,93255.75
2022-09-14T04:23:23.868Z,93251.16
2022-09-14T04:25:51.531Z,93254.66
2022-09-14T04:28:20.594Z,93257.38
2022-09-14T04:30:57.610Z,93260.09
2022-09-14T04:33:25.419Z,93252.25
2022-09-14T04:36:01.527Z,93251.16
2022-09-14T04:38:29.292Z,93254.66
2022-09-14T04:40:56.921Z,93257.38
2022-09-14T04:43:24.689Z,93253.53
2022-09-14T04:45:52.502Z,93262.81
2022-09-14T04:48:21.460Z,93247.31
2022-09-14T04:50:48.991Z,93247.59
2022-09-14T04:53:16.556Z,93246.81
2022-09-14T04:55:44.105Z,93248.44
2022-09-14T04:58:11.630Z,93244.88
2022-09-14T05:00:39.175Z,93252.75
2022-09-14T05:03:06.881Z,93253.88
2022-09-14T05:05:40.068Z,93253.88
2022-09-14T05:08:10.574Z,93257.38
2022-09-14T05:10:38.120Z,93258.19
2022-09-14T05:13:05.631Z,93250.03
2022-09-14T05:15:33.264Z,93254.03
2022-09-14T05:18:00.857Z,93254.88
2022-09-14T05:20:28.420Z,93249.44
2022-09-14T05:22:57.308Z,93249.72
2022-09-14T05:25:25.890Z,93251.66
2022-09-14T05:27:53.474Z,93257.88
2022-09-14T05:30:21.028Z,93260.91
2022-09-14T05:32:48.591Z,93252.75
2022-09-14T05:35:16.145Z,93259.81
2022-09-14T05:37:43.686Z,93254.66
2022-09-14T05:40:12.954Z,93265.53
2022-09-14T05:42:40.558Z,93266.34
2022-09-14T05:45:09.092Z,93274.50
2022-09-14T05:47:39.118Z,93265.53
2022-09-14T05:50:08.786Z,93260.09
2022-09-14T05:52:36.462Z,93272.56
2022-09-14T05:55:04.784Z,93262.81
2022-09-14T05:57:33.761Z,93279.94
2022-09-14T06:00:01.345Z,93275.59
2022-09-14T06:02:28.910Z,93273.66
2022-09-14T06:04:56.517Z,93277.22
2022-09-14T06:07:24.074Z,93267.44
2022-09-14T06:09:51.725Z,93269.06
2022-09-14T06:12:19.291Z,93278.31
2022-09-14T06:14:48.188Z,93275.59
2022-09-14T06:17:15.725Z,93295.72
2022-09-14T06:19:43.278Z,93302.78
2022-09-14T06:22:10.870Z,93311.72
2022-09-14T06:24:38.417Z,93300.06
2022-09-14T06:27:08.840Z,93298.94
2022-09-14T06:29:36.564Z,93293.50
2022-09-14T06:32:06.078Z,93279.41
2022-09-14T06:34:33.708Z,93274.78
2022-09-14T06:37:01.264Z,93272.88
2022-09-14T06:39:29.212Z,93274.78
2022-09-14T06:41:56.717Z,93272.06
2022-09-14T06:44:24.552Z,93264.72
2022-09-14T06:46:52.098Z,93265.53
2022-09-14T06:49:23.094Z,93259.28
2022-09-14T06:51:50.971Z,93254.66
2022-09-14T06:54:18.899Z,93255.75
2022-09-14T06:56:46.850Z,93261.19
2022-09-14T06:59:15.577Z,93257.69
2022-09-14T07:01:43.621Z,93262.31
2022-09-14T07:04:11.217Z,93258.47
2022-09-14T07:06:41.691Z,93254.97
2022-09-14T07:09:09.262Z,93249.53
2022-09-14T07:11:36.949Z,93260.41
2022-09-14T07:14:04.482Z,93254.16
2022-09-14T07:16:32.744Z,93255.75
2022-09-14T07:19:03.020Z,93255.75
2022-09-14T07:21:30.927Z,93246.81
2022-09-14T07:23:59.924Z,93247.59
2022-09-14T07:26:28.280Z,93255.75
2022-09-14T07:28:57.080Z,93265.84
2022-09-14T07:31:25.735Z,93262.00
2022-09-14T07:33:53.724Z,93266.63
2022-09-14T07:36:21.485Z,93274.78
2022-09-14T07:38:52.684Z,93272.88
2022-09-14T07:41:22.144Z,93274.78
2022-09-14T07:43:50.794Z,93281.03
2022-09-14T07:46:18.492Z,93284.53
2022-09-14T07:48:46.121Z,93289.97
2022-09-14T07:51:14.445Z,93290.78
2022-09-14T07:53:43.319Z,93295.41
2022-09-14T07:56:11.689Z,93307.09
2022-09-14T07:58:41.368Z,93305.16
2022-09-14T08:01:09.904Z,93311.44
2022-09-14T08:03:37.517Z,93308.72
2022-09-14T08:06:06.438Z,93305.16
2022-09-14T08:08:36.348Z,93303.28
2022-09-14T08:11:05.749Z,93306.00
2022-09-14T08:13:34.287Z,93306.78
2022-09-14T08:16:03.645Z,93294.81
2022-09-14T08:18:31.716Z,93294.00
2022-09-14T08:21:04.445Z,93290.47
2022-09-14T08:23:32.025Z,93306.50
2022-09-14T08:26:03.401Z,93301.06
2022-09-14T08:28:30.969Z,93301.06
2022-09-14T08:31:04.707Z,93308.38
2022-09-14T08:33:33.157Z,93307.28
2022-09-14T08:36:00.941Z,93311.94
2022-09-14T08:38:28.515Z,93320.09
2022-09-14T08:40:56.209Z,93317.06
2022-09-14T08:43:24.957Z,93320.88
2022-09-14T08:45:54.749Z,93317.38
2022-09-14T08:48:24.865Z,93330.66
2022-09-14T08:50:53.694Z,93330.66
2022-09-14T08:53:22.752Z,93348.88
2022-09-14T08:55:51.128Z,93362.16
2022-09-14T08:58:22.257Z,93357.03
2022-09-14T09:00:52.374Z,93344.25
2022-09-14T09:03:37.475Z,93350.47
2022-09-14T09:06:12.859Z,93356.72
2022-09-14T09:08:47.433Z,93355.91
2022-09-14T09:11:16.408Z,93354.00
2022-09-14T09:13:43.976Z,93345.03
2022-09-14T09:16:11.607Z,93350.19
2022-09-14T09:18:43.147Z,93343.16
2022-09-14T09:21:12.693Z,93350.97
2022-09-14T09:23:40.266Z,93364.56
2022-09-14T09:26:10.993Z,93360.75
2022-09-14T09:28:40.513Z,93360.47
2022-09-14T09:31:12.614Z,93350.38
2022-09-14T09:33:43.502Z,93351.19
2022-09-14T09:36:13.009Z,93357.47
2022-09-14T09:38:40.569Z,93365.63
2022-09-14T09:41:12.397Z,93354.75
2022-09-14T09:43:57.543Z,93365.63
2022-09-14T09:46:25.302Z,93347.38
2022-09-14T09:48:54.253Z,93345.47
2022-09-14T09:51:28.134Z,93337.34
2022-09-14T09:53:59.265Z,93340.06
2022-09-14T09:56:27.528Z,93334.63
2022-09-14T09:58:55.225Z,93328.06
2022-09-14T10:01:28.216Z,93324.25
2022-09-14T10:04:06.043Z,93315.00
2022-09-14T10:06:33.795Z,93317.69
2022-09-14T10:09:01.365Z,93306.84
2022-09-14T10:11:33.844Z,93314.66
2022-09-14T10:14:01.460Z,93308.16
2022-09-14T10:16:33.596Z,93300.78
2022-09-14T10:19:02.826Z,93294.56
2022-09-14T10:21:32.344Z,93274.44
2022-09-14T10:24:04.144Z,93258.91
2022-09-14T10:26:34.583Z,93267.88
2022-09-14T10:29:36.791Z,93265.97
2022-09-14T10:32:08.829Z,93268.69
2022-09-14T10:34:36.365Z,93280.38
2022-09-14T10:37:14.381Z,93267.56
2022-09-14T10:39:47.167Z,93261.03
2022-09-14T10:42:19.290Z,93256.41
2022-09-14T10:44:51.509Z,93269.69
2022-09-14T10:47:31.379Z,93268.91
2022-09-14T10:50:06.029Z,93271.31
2022-09-14T10:52:39.185Z,93261.25
2022-09-14T10:55:31.929Z,93255.53
2022-09-14T10:58:07.137Z,93259.03
2022-09-14T11:00:38.205Z,93254.41
2022-09-14T11:03:15.856Z,93247.53
2022-09-14T11:05:45.893Z,93242.09
2022-09-14T11:08:19.159Z,93244.53
2022-09-14T11:10:57.758Z,93238.31
2022-09-14T11:13:35.357Z,93240.72
2022-09-14T11:16:08.437Z,93240.72
2022-09-14T11:18:40.479Z,93238.50
2022-09-14T11:21:11.620Z,93247.75
2022-09-14T11:23:47.411Z,93229.53
2022-09-14T11:26:16.248Z,93238.19
2022-09-14T11:28:45.284Z,93222.19
2022-09-14T11:31:14.707Z,93217.56
2022-09-14T11:33:45.168Z,93217.56
2022-09-14T11:36:16.578Z,93205.88
2022-09-14T11:38:48.925Z,93209.41
2022-09-14T11:41:21.448Z,93203.97
2022-09-14T11:43:50.595Z,93210.19
2022-09-14T11:46:19.945Z,93196.59
2022-09-14T11:48:50.977Z,93186.53
2022-09-14T11:51:20.396Z,93200.94
2022-09-14T11:53:50.690Z,93190.06
2022-09-14T11:56:24.424Z,93205.28
2022-09-14T11:58:52.001Z,93210.72
2022-09-14T12:01:30.895Z,93210.72
2022-09-14T12:04:19.313Z,93205.28
2022-09-14T12:06:55.076Z,93216.16
2022-09-14T12:09:51.586Z,93208.28
2022-09-14T12:12:35.589Z,93219.66
2022-09-14T12:15:05.129Z,93212.63
2022-09-14T12:17:41.717Z,93209.09
2022-09-14T12:20:29.236Z,93214.53
2022-09-14T12:23:05.892Z,93209.09
2022-09-14T12:25:35.250Z,93215.63
2022-09-14T12:28:02.872Z,93218.34
2022-09-14T12:31:29.326Z,93219.16
2022-09-14T12:34:24.961Z,93217.56
2022-09-14T12:37:31.387Z,93210.50
2022-09-14T12:40:39.249Z,93209.41
2022-09-14T12:43:47.375Z,93211.31
2022-09-14T12:46:40.230Z,93202.34
2022-09-14T12:49:35.648Z,93205.06
2022-09-14T12:52:18.411Z,93207.78
2022-09-14T12:54:52.418Z,93199.63
2022-09-14T12:57:34.210Z,93196.91
2022-09-14T13:00:07.005Z,93199.63
2022-09-14T13:03:00.962Z,93191.78
2022-09-14T13:05:30.353Z,93170.84
2022-09-14T13:07:57.898Z,93172.47
2022-09-14T13:10:28.650Z,93179.00
2022-09-14T13:12:56.223Z,93168.13
2022-09-14T13:15:24.527Z,93171.63
2022-09-14T13:18:01.538Z,93163.81
2022-09-14T13:20:29.465Z,93170.03
2022-09-14T13:22:56.995Z,93177.41
2022-09-14T13:25:34.180Z,93179.28
2022-09-14T13:28:03.319Z,93183.63
2022-09-14T13:30:31.466Z,93189.06
2022-09-14T13:33:00.400Z,93190.97
2022-09-14T13:35:30.900Z,93188.28
2022-09-14T13:37:59.282Z,93180.41
2022-09-14T13:40:29.208Z,93171.13
2022-09-14T13:42:56.829Z,93178.50
2022-09-14T13:45:24.528Z,93176.56
2022-09-14T13:47:53.100Z,93177.69
2022-09-14T13:50:23.517Z,93179.28
2022-09-14T13:53:01.866Z,93182.00
2022-09-14T13:55:43.423Z,93174.97
2022-09-14T13:58:16.484Z,93185.84
2022-09-14T14:00:52.525Z,93182.00
2022-09-14T14:03:26.086Z,93179.28
2022-09-14T14:05:55.054Z,93179.28
2022-09-14T14:08:32.170Z,93177.69
2022-09-14T14:11:01.518Z,93169.25
2022-09-14T14:13:31.512Z,93179.28
2022-09-14T14:16:14.728Z,93180.41
2022-09-14T14:18:42.932Z,93175.78
2022-09-14T14:21:17.401Z,93193.69
2022-09-14T14:24:09.250Z,93182.81
2022-09-14T14:26:32.712Z,93178.19
2022-09-14T14:29:08.473Z,93187.44
2022-09-14T14:31:36.152Z,93186.34
2022-09-14T14:34:12.185Z,93178.19
2022-09-14T14:36:41.064Z,93199.94
2022-09-14T14:39:08.620Z,93202.66
2022-09-14T14:41:36.161Z,93187.94
2022-09-14T14:44:04.008Z,93191.78
2022-09-14T14:46:31.888Z,93189.88
2022-09-14T14:48:59.428Z,93189.06
2022-09-14T14:51:26.958Z,93186.34
2022-09-14T14:53:56.050Z,93186.34
2022-09-14T14:56:23.721Z,93187.16
2022-09-14T14:58:51.438Z,93198.03
2022-09-14T15:01:19.115Z,93208.09
2022-09-14T15:03:47.035Z,93214.34
2022-09-14T15:06:16.720Z,93206.19
2022-09-14T15:08:44.488Z,93226.00
2022-09-14T15:11:16.765Z,93223.59
2022-09-14T15:13:44.519Z,93239.91
2022-09-14T15:16:12.112Z,93227.94
2022-09-14T15:18:39.715Z,93229.03
2022-09-14T15:21:07.260Z,93234.47
2022-09-14T15:23:34.864Z,93241.53
2022-09-14T15:26:02.399Z,93239.59
2022-09-14T15:28:31.585Z,93227.13
2022-09-14T15:30:59.396Z,93237.69
2022-09-14T15:33:27.075Z,93238.00
2022-09-14T15:35:58.053Z,93236.88
2022-09-14T15:38:25.731Z,93238.50
2022-09-14T15:40:53.580Z,93232.25
2022-09-14T15:43:21.103Z,93227.63
2022-09-14T15:45:50.147Z,93227.94
2022-09-14T15:48:18.420Z,93233.06
2022-09-14T15:50:47.568Z,93234.66
2022-09-14T15:53:16.475Z,93224.09
2022-09-14T15:55:44.769Z,93239.31
2022-09-14T15:58:12.300Z,93216.75
2022-09-14T16:00:43.573Z,93220.28
2022-09-14T16:03:12.907Z,93209.09
2022-09-14T16:05:40.527Z,93228.94
2022-09-14T16:08:08.160Z,93234.38
2022-09-14T16:10:35.711Z,93234.38
2022-09-14T16:13:03.273Z,93219.38
2022-09-14T16:15:30.952Z,93223.72
2022-09-14T16:17:58.599Z,93223.38
2022-09-14T16:20:27.873Z,93235.88
2022-09-14T16:22:55.467Z,93234.78
2022-09-14T16:25:23.024Z,93233.97
2022-09-14T16:27:50.611Z,93241.03
2022-09-14T16:30:18.210Z,93234.47
2022-09-14T16:32:45.776Z,93231.66
2022-09-14T16:35:13.305Z,93228.03
2022-09-14T16:37:42.173Z,93211.13
2022-09-14T16:40:11.768Z,93216.94
2022-09-14T16:42:39.481Z,93221.97
2022-09-14T16:45:08.573Z,93222.38
2022-09-14T16:47:36.124Z,93218.16
2022-09-14T16:50:03.724Z,93216.91
2022-09-14T16:52:31.288Z,93208.34
2022-09-14T16:55:00.164Z,93199.75
2022-09-14T16:57:29.840Z,93197.72
2022-09-14T16:59:57.380Z,93210.13
2022-09-14T17:02:25.002Z,93202.94
2022-09-14T17:04:52.740Z,93198.47
2022-09-14T17:07:22.233Z,93208.44
2022-09-14T17:09:49.804Z,93205.94
2022-09-14T17:12:18.740Z,93203.06
2022-09-14T17:14:47.715Z,93186.09
2022-09-14T17:17:15.829Z,93192.06
2022-09-14T17:19:43.879Z,93201.84
2022-09-14T17:22:11.492Z,93206.66
2022-09-14T17:24:39.930Z,93205.25
2022-09-14T17:27:07.473Z,93205.75
2022-09-14T17:29:39.617Z,93206.25
2022-09-14T17:32:10.142Z,93196.66
2022-09-14T17:34:40.310Z,93196.66
2022-09-14T17:37:07.837Z,93199.38
2022-09-14T17:39:35.371Z,93193.94
2022-09-14T17:42:02.940Z,93193.31
2022-09-14T17:44:31.768Z,93197.63
2022-09-14T17:47:01.182Z,93195.41
2022-09-14T17:49:29.421Z,93197.31
2022-09-14T17:51:57.584Z,93191.84
2022-09-14T17:54:25.637Z,93197.31
2022-09-14T17:56:53.620Z,93196.22
2022-09-14T17:59:21.468Z,93202.97
2022-09-14T18:01:51.421Z,93205.69
2022-09-14T18:04:20.498Z,93208.75
2022-09-14T18:06:49.566Z,93219.31
2022-09-14T18:09:19.852Z,93217.41
2022-09-14T18:11:47.705Z,93213.56
2022-09-14T18:14:16.140Z,93218.69
2022-09-14T18:16:44.175Z,93214.06
2022-09-14T18:19:11.955Z,93217.59
2022-09-14T18:21:41.707Z,93210.22
2022-09-14T18:24:10.334Z,93205.59
2022-09-14T18:26:38.599Z,93203.66
2022-09-14T18:29:06.174Z,93196.28
2022-09-14T18:31:34.050Z,93199.81
2022-09-14T18:34:01.890Z,93194.06
2022-09-14T18:36:30.330Z,93184.28
2022-09-14T18:39:00.330Z,93164.38
2022-09-14T18:41:29.045Z,93152.38
2022-09-14T18:43:56.690Z,93152.84
2022-09-14T18:46:28.142Z,93155.28
2022-09-14T18:48:57.510Z,93151.78
2022-09-14T18:51:25.049Z,93161.56
2022-09-14T18:53:56.733Z,93158.69
2022-09-14T18:56:25.622Z,93153.53
2022-09-14T18:58:53.151Z,93145.50
2022-09-14T19:01:20.838Z,93143.22
2022-09-14T19:03:48.743Z,93145.53
2022-09-14T19:06:17.061Z,93154.34
2022-09-14T19:08:44.801Z,93154.69
2022-09-14T19:11:13.801Z,93156.38
2022-09-14T19:13:42.712Z,93154.59
2022-09-14T19:16:11.662Z,93161.78
2022-09-14T19:18:39.525Z,93169.75
2022-09-14T19:21:07.656Z,93163.34
2022-09-14T19:23:35.486Z,93162.03
2022-09-14T19:26:05.558Z,93161.88
2022-09-14T19:28:33.357Z,93169.84
2022-09-14T19:31:05.195Z,93178.31
2022-09-14T19:33:32.737Z,93184.38
2022-09-14T19:36:03.560Z,93182.78
2022-09-14T19:38:31.102Z,93188.84
2022-09-14T19:40:58.737Z,93185.63
2022-09-14T19:43:26.303Z,93187.81
2022-09-14T19:45:53.920Z,93192.78
2022-09-14T19:48:22.874Z,93186.84
2022-09-14T19:50:50.392Z,93190.19
2022-09-14T19:53:17.924Z,93194.03
2022-09-14T19:55:45.445Z,93189.69
2022-09-14T19:58:31.612Z,93196.25
2022-09-14T20:00:59.462Z,93202.28
2022-09-14T20:03:28.376Z,93199.06
2022-09-14T20:06:02.007Z,93201.00
2022-09-14T20:08:29.775Z,93202.09
2022-09-14T20:10:57.303Z,93202.41
2022-09-14T20:13:24.917Z,93208.97
2022-09-14T20:15:52.486Z,93209.25
2022-09-14T20:18:20.143Z,93213.09
2022-09-14T20:20:49.016Z,93211.47
2022-09-14T20:23:16.558Z,93209.09
2022-09-14T20:25:44.112Z,93211.00
2022-09-14T20:28:11.666Z,93204.75
2022-09-14T20:30:39.191Z,93213.22
2022-09-14T20:33:06.728Z,93211.59
2022-09-14T20:35:34.949Z,93220.56
2022-09-14T20:38:03.825Z,93218.94
2022-09-14T20:40:31.416Z,93226.31
2022-09-14T20:42:59.246Z,93213.34
2022-09-14T20:45:26.793Z,93209.78
2022-09-14T20:47:54.490Z,93216.06
2022-09-14T20:50:22.008Z,93216.84
2022-09-14T20:52:49.541Z,93215.53
2022-09-14T20:55:18.449Z,93218.25
2022-09-14T20:57:45.993Z,93223.97
2022-09-14T21:00:14.514Z,93217.72
2022-09-14T21:02:42.090Z,93224.28
2022-09-14T21:05:10.222Z,93227.00
2022-09-14T21:07:37.749Z,93228.09
2022-09-14T21:10:06.038Z,93221.88
2022-09-14T21:12:34.933Z,93228.41
2022-09-14T21:15:02.539Z,93230.34
2022-09-14T21:17:30.091Z,93223.28
2022-09-14T21:19:57.793Z,93231.44
2022-09-14T21:22:25.338Z,93227.13
2022-09-14T21:24:52.860Z,93218.94
2022-09-14T21:27:20.460Z,93217.34
2022-09-14T21:29:50.157Z,93220.06
2022-09-14T21:32:17.737Z,93221.97
2022-09-14T21:34:45.260Z,93218.75
2022-09-14T21:37:12.804Z,93220.34
2022-09-14T21:39:40.328Z,93220.34
2022-09-14T21:42:08.192Z,93218.75
2022-09-14T21:44:37.735Z,93212.50
2022-09-14T21:47:07.140Z,93219.88
2022-09-14T21:49:34.664Z,93221.75
2022-09-14T21:52:02.526Z,93227.19
2022-09-14T21:54:30.057Z,93244.34
2022-09-14T21:56:57.574Z,93250.91
2022-09-14T21:59:25.102Z,93250.91
2022-09-14T22:01:52.902Z,93254.72
2022-09-14T22:04:22.945Z,93255.84
2022-09-14T22:06:51.363Z,93262.88
2022-09-14T22:09:20.296Z,93258.56
2022-09-14T22:11:48.262Z,93263.19
2022-09-14T22:14:18.050Z,93271.34
2022-09-14T22:16:45.872Z,93262.38
2022-09-14T22:19:16.340Z,93269.72
2022-09-14T22:21:45.293Z,93258.84
2022-09-14T22:24:15.644Z,93258.06
2022-09-14T22:26:43.204Z,93261.84
2022-09-14T22:29:10.765Z,93278.19
2022-09-14T22:31:38.496Z,93276.56
2022-09-14T22:34:06.170Z,93282.81
2022-09-14T22:36:33.913Z,93283.63
2022-09-14T22:39:03.097Z,93281.22
2022-09-14T22:41:30.637Z,93273.84
2022-09-14T22:43:58.171Z,93274.97
2022-09-14T22:46:25.816Z,93271.13
2022-09-14T22:48:53.617Z,93267.91
2022-09-14T22:51:22.099Z,93266.81
2022-09-14T22:53:49.673Z,93265.19
2022-09-14T22:56:19.507Z,93266.00
2022-09-14T22:58:47.584Z,93260.84
2022-09-14T23:01:16.496Z,93265.50
2022-09-14T23:03:44.245Z,93268.22
2022-09-14T23:06:11.945Z,93272.84
2022-09-14T23:08:39.577Z,93285.34
2022-09-14T23:11:08.297Z,93279.09
2022-09-14T23:13:37.417Z,93274.78
2022-09-14T23:16:10.348Z,93287.28
2022-09-14T23:18:37.928Z,93276.69
2022-09-14T23:21:06.004Z,93275.06
2022-09-14T23:23:33.549Z,93277.78
2022-09-14T23:26:04.575Z,93273.13
2022-09-14T23:28:32.152Z,93264.19
2022-09-14T23:31:01.132Z,93268.03
2022-09-14T23:33:28.965Z,93262.59
2022-09-14T23:35:56.657Z,93259.84
2022-09-14T23:38:24.330Z,93270.75
2022-09-14T23:40:51.993Z,93263.69
2022-09-14T23:43:19.720Z,93261.75
2022-09-14T23:45:47.804Z,93252.81
2022-09-14T23:48:16.758Z,93262.09
2022-09-14T23:50:44.597Z,93264.47
2022-09-14T23:53:12.187Z,93254.72
2022-09-14T23:55:39.744Z,93256.66
2022-09-14T23:58:07.306Z,93256.66
